Weather observations for the past three days for
Henderson-Oxford Airport
Imperial (Metric)
Date Time (edt) Wind (mph) Vis. (mi.) Weather Sky Cond. Temperature (ºF) Relative Humidity Wind Chill (°F) Heat Index (°F) Pressure Precipitation (in)
Air Dwpt 6 hour altimeter (in) sea level (mb) 1 hr 3 hr 6 hr
Max. Min.
08 16:55 S 12 10.00 Fair CLR 67.8 35.8 31% 29.96 0.0
08 16:35 S 8 G 16 10.00 Fair CLR 68.4 34.9 29% 29.97 0.0
08 16:15 SW 6 10.00 Fair CLR 68 35.6 30% 29.97 0.0
08 15:35 S 3 10.00 Fair CLR 67.5 35.6 31% 29.98 0.0
08 15:15 S 9 10.00 Fair CLR 66.9 35.8 32% 29.99 0.0
08 14:55 SW 6 10.00 Fair CLR 66.6 35.6 32% 30 0.0
08 14:35 SE 3 10.00 Fair CLR 65.7 37.8 36% 30.01 0.0
08 14:15 Calm 10.00 Fair CLR 65.1 36.5 35% 30.02 0.0
08 13:35 NW 3 10.00 Fair CLR 64.2 34.9 34% 30.02 0.0
08 13:15 Calm 10.00 Fair CLR 62.8 33.3 33% 30.03 0.0
08 12:55 Calm 10.00 Fair CLR 62.6 36.3 38% 30.04 0.0
08 12:35 W 3 10.00 Fair CLR 61.7 36 38% 30.05 0.0
08 12:15 Calm 10.00 Fair CLR 61.2 35.1 38% 30.06 0.0
08 11:55 Calm 10.00 Fair CLR 59.9 34.5 39% 30.07 0.0
08 11:35 Calm 10.00 Fair CLR 59.4 34.7 40% 30.07 0.0
08 11:15 NE 6 10.00 Fair CLR 59 38.1 46% 30.07 0.0
08 10:55 NE 6 10.00 Fair CLR 58.6 39 48% 30.07 0.0
08 10:35 NE 3 10.00 Fair CLR 57.7 39.6 51% 30.07 0.0
08 10:15 N 5 10.00 Fair CLR 57 41.2 56% 30.07 0.0
08 09:35 N 3 10.00 Fair CLR 54.7 43 65% 30.06 0.0
08 09:15 N 7 10.00 Fair CLR 53.6 43.2 68% 30.06 0.0
08 08:55 Calm 10.00 Fair CLR 52 44.1 75% 30.06 0.0
08 08:35 N 5 10.00 Fair CLR 50 44.2 81% 49 30.05 0.0
08 08:15 N 3 10.00 Fair CLR 47.7 46 94% 30.04 0.0
08 07:55 Calm 10.00 Fair CLR 46.6 46.4 48.2 41.9 99% 30.04 0.0 0.01 0.01
08 07:35 Calm 10.00 Fair CLR 46 45.9 99% 30.03 0.0 0.01
08 07:15 Calm 10.00 Fair CLR 44.6 44.6 100% 30.02 0.0
08 06:55 Calm 10.00 Fair CLR 43.3 43.2 99% 30.01 0.0
08 06:35 Calm 0.50 Fog VV005 42.1 41.9 99% 30 0.0
08 06:15 Calm 0.25 Fog VV002 42.8 42.4 99% 29.99 0.0
08 05:55 Calm 7.00 Fair CLR 43 42.8 99% 29.99 0.0
08 05:35 Calm 0.25 Fog BKN001 44.6 44.6 100% 29.98 0.0
08 05:15 Calm 1.25 Fog/Mist BKN001 45.5 45.5 100% 29.98 0.0
08 04:55 Calm 4.00 Fog/Mist CLR 46 45.9 99% 29.97 0.0
08 04:35 Calm 4.00 Fog/Mist BKN001 46.6 46.4 99% 29.97 0.0
08 04:15 Calm 3.00 Fog/Mist OVC001 47.3 46.9 99% 29.96 0.0
08 03:55 Calm 1.00 Fog/Mist OVC001 47.7 47.5 99% 29.96 0.0
08 03:35 Calm 0.50 Fog OVC001 48.2 47.8 99% 29.95 0.0
08 03:15 NW 3 0.75 Fog/Mist OVC001 47.7 47.5 99% 29.94 0.0
08 02:55 Calm 1.50 Fog/Mist SCT005 46.2 46 99% 29.94 0.0
08 02:35 Calm 1.00 Fog/Mist BKN005 45.9 45.9 100% 29.94 0.0
08 02:15 Calm 4.00 Fog/Mist SCT007 46 45.9 99% 29.95 0.0
08 01:55 Calm 5.00 Fog/Mist OVC009 47.1 46.9 49.5 45.5 99% 29.94 0.0
08 01:35 Calm 4.00 Fog/Mist BKN009 46.2 46 99% 29.94 0.0
08 01:10 Calm 2.50 Fog/Mist SCT011 46.8 46.6 99% 29.94 0.0
08 00:55 Calm 0.75 Fog/Mist SCT001 OVC011 45.9 45.7 99% 29.94 0.0
08 00:35 Calm 5.00 Fog/Mist OVC013 47.3 47.3 100% 29.93 0.0
08 00:15 Calm 7.00 Overcast OVC013 47.7 47.5 99% 29.93 0.0
07 23:55 Calm 5.00 Fog/Mist OVC013 48 47.7 99% 29.93 0.0
07 23:35 Calm 5.00 Fog/Mist OVC015 47.5 47.3 99% 29.93 0.0
07 23:15 Calm 2.50 Fog/Mist BKN017 46.9 46.8 99% 29.93 0.0
07 22:55 Calm 5.00 Fog/Mist SCT001 SCT013 SCT090 47.3 47.1 99% 29.92 0.0
07 22:35 Calm 7.00 Mostly Cloudy SCT001 SCT013 BKN090 47.7 47.5 99% 29.91 0.0
07 22:15 Calm 3.00 Fog/Mist SCT090 48.2 47.7 98% 29.9 0.0
07 21:55 Calm 7.00 Partly Cloudy SCT012 SCT080 SCT100 48.4 48.2 99% 29.89 0.0
07 21:35 Calm 10.00 Mostly Cloudy SCT001 BKN012 BKN080 48.6 48.4 99% 29.89 0.0
07 21:15 Calm 10.00 Overcast OVC010 49.1 49.1 100% 29.88 0.0
07 20:55 Calm 10.00 Overcast OVC010 49.3 49.1 99% 29.89 0.0
07 20:35 Calm 10.00 Overcast SCT012 OVC065 48.7 48.2 98% 29.88 0.0
07 20:15 Calm 10.00 Mostly Cloudy BKN055 BKN075 49.1 48.6 98% 29.87 0.0
07 19:55 NE 3 10.00 Mostly Cloudy SCT006 SCT012 BKN049 49.8 49.6 52 49.8 99% 29.85 0.0
07 19:35 NE 5 10.00 Overcast SCT006 SCT012 OVC049 50 50 100% 49 29.86 0.0
07 19:15 NE 5 10.00 Overcast BKN012 OVC049 50.2 50 99% 29.86 0.0
07 18:55 NE 5 10.00 Overcast SCT007 BKN012 OVC047 50.5 50.4 99% 29.85 0.0
07 18:35 NE 5 10.00 Overcast BKN007 OVC043 50.9 50.7 99% 29.84 0.0
07 18:15 SE 5 10.00 Light Rain SCT009 SCT013 OVC043 50.9 50 97% 29.84 0.0
07 17:55 E 6 7.00 Light Rain BKN007 BKN012 OVC041 51.4 50.7 97% 29.85 0.0
07 17:35 NE 5 10.00 Overcast SCT007 BKN032 OVC041 51.1 50.2 97% 29.84 0.0
07 17:15 NE 6 10.00 Overcast BKN007 BKN013 OVC031 51.6 50.9 97% 29.84 0.0
07 16:55 N 6 10.00 Overcast BKN007 OVC010 51.8 51.4 99% 29.84 0.0
07 16:35 NE 7 10.00 Overcast BKN007 BKN013 OVC022 51.8 51.4 99% 29.84 0.0
07 16:15 NE 7 10.00 Overcast BKN007 BKN012 OVC022 52 51.8 99% 29.84 0.0
07 15:55 NE 6 5.00 Fog/Mist BKN007 OVC012 51.4 51.3 99% 29.85 0.0
07 15:35 N 7 5.00 Light Drizzle OVC010 51.3 51.1 99% 29.84 0.0
07 15:15 NE 6 5.00 Light Rain BKN008 OVC012 51.3 51.1 99% 29.84 0.0
07 14:55 NE 8 G 16 7.00 Light Rain OVC008 51.1 50.9 99% 29.83 0.0
07 14:35 NE 8 10.00 Overcast OVC008 51.1 50.9 99% 29.83 0.0
07 14:15 NE 10 G 17 7.00 Overcast OVC008 51.3 51.1 99% 29.84 0.0
07 13:55 NE 10 5.00 Fog/Mist BKN006 OVC012 52 51.8 62.8 52 99% 29.84 0.0
07 13:35 NE 10 G 21 3.00 Light Rain BKN008 BKN014 OVC019 52.2 52 99% 29.82 0.0
07 13:15 NE 10 G 17 4.00 Light Rain SCT008 BKN014 OVC019 52.3 52.2 99% 29.84 0.0
07 12:55 NE 14 G 17 10.00 Light Rain BKN010 OVC016 52.7 52.3 99% 29.82 0.0
07 12:35 NE 12 G 20 10.00 Light Rain BKN010 OVC016 52.9 52.7 99% 29.85 0.0
07 12:15 NE 10 10.00 Light Rain OVC008 52.7 52.3 99% 29.84 0.0
07 11:55 N 8 G 16 10.00 Light Rain OVC006 52.9 52.7 99% 29.87 0.0
07 11:35 NE 8 G 16 7.00 Light Rain OVC006 53.1 52.9 99% 29.84 0.0
07 11:15 N 9 7.00 Light Rain OVC006 53.1 52.9 99% 29.84 0.0
07 10:55 NE 9 G 21 5.00 Rain OVC006 53.4 53.1 99% 29.84 0.0
07 10:35 NE 13 G 21 4.00 Light Rain SCT004 OVC008 61.3 61 99% 29.82 0.0
07 10:15 Calm 4.00 Rain OVC006 62.6 62.6 100% 29.82 0.0
07 09:55 Calm 2.00 Rain SCT002 OVC006 62.6 62.2 99% 29.83 0.0
07 09:35 NW 3 1.00 Heavy Rain OVC006 62.2 62.1 99% 29.84 0.0
07 09:15 Calm 1.50 Heavy Rain OVC006 62.2 62.1 99% 29.82 0.0
07 08:55 Calm 1.00 Heavy Rain OVC004 62.1 61.9 99% 29.82 0.0
07 08:35 Calm 2.50 Light Rain BKN004 OVC008 62.2 61.9 99% 29.83 0.0
07 08:15 Calm 10.00 Overcast OVC004 62.1 61.9 99% 29.84 0.0
07 07:55 Calm 7.00 Overcast BKN004 OVC008 62.1 61.9 62.8 61.7 99% 29.84 0.0
07 07:35 Calm 7.00 Overcast BKN004 OVC009 61.9 61.7 99% 29.85 0.0
07 07:15 Calm 10.00 Overcast OVC006 61.9 61.7 99% 29.84 0.0
07 06:55 Calm 10.00 Overcast OVC006 61.7 61.7 100% 29.84 0.0
07 06:35 Calm 7.00 Overcast OVC006 61.7 61.7 100% 29.82 0.0
07 06:15 SW 5 7.00 Light Rain BKN004 OVC009 61.9 61.7 99% 29.84 0.0
07 05:55 SW 5 5.00 Rain BKN004 OVC008 61.9 61.7 99% 29.84 0.0
07 05:35 S 5 5.00 Light Rain SCT002 BKN006 OVC010 61.7 61.7 100% 29.82 0.0
07 05:15 S 8 5.00 Rain BKN004 BKN010 OVC026 61.9 61.7 99% 29.82 0.0
07 04:55 S 7 7.00 Light Rain OVC004 61.7 61.7 100% 29.84 0.0
07 04:35 SW 3 7.00 Light Rain SCT002 BKN010 OVC027 61.9 61.7 99% 29.84 0.0
07 04:15 SW 3 7.00 Light Rain SCT010 BKN028 OVC045 61.9 61.7 99% 29.84 0.0
07 03:55 S 5 10.00 Light Rain SCT013 BKN033 OVC047 61.9 61.7 99% 29.84 0.0
07 03:15 SW 9 5.00 Light Rain BKN008 OVC016 62.2 62.1 99% 29.85 0.0
07 02:55 SW 10 4.00 Rain BKN008 OVC015 62.2 62.1 99% 29.86 0.0
07 02:35 SW 9 2.50 Heavy Rain BKN010 BKN018 OVC043 62.6 62.2 99% 29.88 0.0
07 02:15 SW 9 G 16 7.00 Light Rain SCT002 BKN008 BKN021 62.6 62.6 100% 29.86 0.0
07 01:55 SW 7 7.00 Light Rain SCT008 SCT070 62.8 62.6 67.8 62.6 99% 29.87 0.0 0.01 0.03
07 01:35 SW 7 10.00 Mostly Cloudy SCT070 BKN080 63.1 63 99% 29.88 0.0 0.01
07 01:15 SW 6 10.00 Partly Cloudy SCT070 63.5 63.3 99% 29.88 0.0
07 00:55 SW 8 10.00 Partly Cloudy SCT003 SCT007 SCT010 63.5 63 98% 29.89 0.0 0.02
07 00:35 SW 7 7.00 Rain SCT003 BKN008 OVC011 64.4 63 95% 29.89 0.0 0.02
07 00:15 SW 9 7.00 Light Rain OVC006 63.7 63.5 99% 29.92 0.0 0.02
06 23:55 SW 5 10.00 Light Rain BKN001 BKN008 63.1 63 99% 29.9 0.0
06 23:35 Calm 10.00 Light Rain SCT001 SCT007 62.6 62.2 99% 29.89 0.0
06 23:15 Calm 7.00 Light Rain SCT001 63 62.8 99% 29.89 0.0
06 22:55 Calm 10.00 Light Rain SCT001 63.1 62.6 98% 29.9 0.0
06 22:35 Calm 10.00 Light Rain SCT001 64.2 61.3 90% 29.88 0.0
06 22:15 Calm 10.00 Fair CLR 64.2 61.2 90% 29.88 0.0
06 21:55 Calm 10.00 Light Rain CLR 65.3 61 86% 29.88 0.0
06 21:35 Calm 10.00 Fair CLR 66 59.2 79% 29.89 0.0
06 21:15 Calm 10.00 Fair CLR 67.1 59.2 76% 29.89 0.0
06 20:55 S 6 10.00 Fair CLR 67.1 59.2 76% 29.86 0.0
06 20:35 SW 7 10.00 Fair CLR 67.3 59 75% 29.87 0.0
06 20:15 SW 5 10.00 Fair CLR 66.9 59 76% 29.87 0.0
06 19:55 SW 7 10.00 Fair CLR 67.8 59 70.9 66.4 74% 29.88 0.0
06 19:35 SW 9 10.00 Fair CLR 68.5 59 72% 29.88 0.0
06 19:15 SW 9 G 17 10.00 Fair CLR 69.4 59 70% 29.89 0.0
06 18:55 SW 13 10.00 Fair CLR 69.3 59 70% 29.87 0.0
06 18:35 SW 12 G 16 10.00 Fair CLR 69.8 58.6 68% 29.87 0.0
06 18:15 SW 13 G 17 10.00 Fair CLR 70.9 59 66% 29.86 0.0
06 17:55 SW 12 G 22 10.00 Fair CLR 70.7 59 67% 29.87 0.0
06 17:35 SW 17 G 22 10.00 Partly Cloudy SCT024 70.7 59 67% 29.86 0.0
06 17:15 SW 15 G 18 10.00 Partly Cloudy SCT022 70.9 59 66% 29.87 0.0
06 16:55 SW 16 G 22 10.00 Partly Cloudy SCT022 69.8 59 69% 29.86 0.0
06 16:35 SW 14 G 23 10.00 Fair CLR 69.4 59 70% 29.85 0.0
06 16:15 S 17 G 26 10.00 Fair CLR 69.1 59 70% 29.85 0.0
06 15:55 S 18 G 24 10.00 Fair CLR 68.9 58.1 69% 29.85 0.0
06 15:35 S 12 G 20 10.00 Light Rain SCT001 68 58.1 71% 29.86 0.0
06 15:10 S 10 G 18 10.00 Partly Cloudy SCT001 68 57.2 69% 29.89 0.0
06 14:55 SW 9 10.00 Fair CLR 67.3 57.4 71% 29.91 0.0
06 14:35 SW 10 10.00 Fair CLR 66.7 56.7 70% 29.93 0.0
06 14:15 SW 13 10.00 Fair CLR 66.6 56.5 70% 29.94 0.0
06 13:55 SW 8 10.00 Partly Cloudy SCT001 SCT005 66.4 56.7 67.3 61 71% 29.94 0.0
06 13:35 S 10 10.00 Partly Cloudy SCT001 67.1 56.7 69% 29.94 0.0
06 13:15 S 12 G 16 10.00 Light Rain SCT001 67.1 56.5 69% 29.94 0.0
06 12:55 S 9 G 20 10.00 Light Rain SCT001 SCT006 65.7 55.8 71% 29.94 0.0
06 12:35 S 9 10.00 Fair CLR 66.6 54.7 66% 29.94 0.0
06 12:15 S 7 10.00 Fair CLR 65.3 54.1 67% 29.95 0.0
06 11:55 S 7 10.00 Partly Cloudy SCT003 SCT007 63.9 54.5 72% 29.96 0.0
06 11:35 SW 8 10.00 Light Rain SCT003 SCT007 64.6 53.6 68% 29.96 0.0
06 11:15 SW 12 10.00 Fair CLR 64.6 52 64% 29.96 0.0
06 10:55 SW 12 10.00 Fair CLR 64.6 51.8 63% 29.95 0.0
06 10:35 SW 9 10.00 Light Rain CLR 64 51.4 64% 29.94 0.0
06 10:15 S 16 G 20 10.00 Fair CLR 64.4 51.1 62% 29.94 0.0
06 09:55 S 13 G 18 10.00 Fair CLR 64 51.1 63% 29.94 0.0
06 09:35 S 10 G 18 10.00 Fair CLR 63.5 50.9 64% 29.95 0.0
06 09:15 SW 13 G 20 10.00 Fair CLR 62.8 51.3 66% 29.96 0.0
06 08:55 SW 14 G 20 10.00 Fair CLR 62.6 51.1 66% 29.95 0.0
06 08:35 SW 13 G 16 10.00 Fair CLR 61.9 51.1 68% 29.95 0.0
06 08:15 SW 12 10.00 Fair CLR 61.5 51.1 69% 29.94 0.0
06 07:55 S 8 10.00 Fair CLR 61 51.3 61.2 58.6 71% 29.93 0.0
06 07:35 S 9 10.00 Fair CLR 60.6 51.3 71% 29.94 0.0
06 06:55 S 10 10.00 Fair CLR 59.5 51.3 74% 29.93 0.0
06 06:35 S 9 10.00 Fair CLR 59.4 51.4 75% 29.93 0.0
06 06:15 S 10 10.00 Fair CLR 59.2 51.4 76% 29.93 0.0
06 05:55 S 12 G 17 10.00 Fair CLR 59.5 51.4 75% 29.93 0.0
06 05:35 S 12 G 18 10.00 Fair CLR 59.5 51.6 75% 29.93 0.0
06 05:15 SW 10 10.00 Fair CLR 59.2 51.8 77% 29.94 0.0
06 04:55 S 8 10.00 Fair CLR 59 51.4 76% 29.94 0.0
06 04:35 S 9 10.00 Fair CLR 58.6 51.6 78% 29.94 0.0
06 04:15 S 10 G 20 10.00 Fair CLR 59.2 51.6 76% 29.94 0.0
06 03:55 S 10 G 18 10.00 Fair CLR 59.4 51.8 76% 29.95 0.0
06 03:35 S 10 10.00 Fair CLR 59.4 51.8 76% 29.94 0.0
06 03:15 S 13 G 21 10.00 Fair CLR 59.9 51.8 75% 29.94 0.0
06 02:55 S 12 10.00 Fair CLR 60.1 51.8 74% 29.95 0.0
06 02:35 S 12 G 20 10.00 Fair CLR 60.4 52 74% 29.95 0.0
06 02:15 S 10 G 21 10.00 Fair CLR 60.8 52.2 73% 29.96 0.0
06 01:55 S 13 G 20 10.00 Fair CLR 61 52.3 71.6 61 73% 29.96 0.0
06 01:15 S 12 G 17 10.00 Fair CLR 61.7 52 71% 29.97 0.0
06 00:55 S 12 G 20 10.00 Fair CLR 62.1 51.8 69% 29.97 0.0
06 00:35 S 12 G 17 10.00 Fair CLR 62.6 51.4 67% 29.98 0.0
06 00:15 S 8 10.00 Fair CLR 63 50.9 65% 29.97 0.0
05 23:55 S 10 10.00 Fair CLR 63.5 50.5 63% 29.97 0.0
05 23:35 S 13 G 18 10.00 Fair CLR 64.6 50.4 60% 29.97 0.0
05 23:15 S 10 10.00 Fair CLR 64.6 50 59% 29.97 0.0
05 22:55 S 7 10.00 Fair CLR 65.7 49.6 56% 29.97 0.0
05 22:35 S 10 10.00 Fair CLR 66.6 49.5 54% 29.97 0.0
05 22:15 S 12 G 18 10.00 Fair CLR 67.3 49.3 53% 29.97 0.0
05 21:55 S 12 G 16 10.00 Fair CLR 66.7 49.3 54% 29.96 0.0
05 21:35 S 9 10.00 Fair CLR 67.3 49.1 52% 29.96 0.0
05 21:15 S 8 10.00 Fair CLR 67.3 48.4 51% 29.95 0.0
05 20:55 S 8 10.00 Fair CLR 68.2 48.2 49% 29.94 0.0
05 20:35 S 7 10.00 Fair CLR 69.3 48 47% 29.94 0.0
05 20:15 S 7 10.00 Fair CLR 70 47.7 45% 29.94 0.0
05 19:55 S 9 10.00 Fair CLR 71.6 47.3 78.8 71.6 42% 29.93 0.0
05 19:35 S 10 10.00 Fair CLR 72.7 47.3 41% 29.93 0.0
05 19:15 S 9 G 21 10.00 Fair CLR 72.9 46.8 40% 29.93 0.0
05 18:55 S 12 G 18 10.00 Fair CLR 74.1 46.9 38% 29.93 0.0
05 18:35 S 9 G 13 10.00 Fair CLR 75.6 46.6 36% 77 29.93 0.0
05 18:15 S 14 G 20 10.00 Fair CLR 75.4 46.6 36% 77 29.94 0.0
05 17:55 S 17 G 25 10.00 Fair CLR 76.6 45.3 33% 78 29.93 0.0
05 17:35 S 16 G 22 10.00 Fair CLR 76.5 45 33% 78 29.93 0.0
Date Time (edt) Wind (mph) Vis. (mi.) Weather Sky Cond. Air Dwpt Max. Min. Relative Humidity Wind Chill (°F) Heat Index (°F) altimeter (in) sea level (mb) 1 hr 3 hr 6 hr
6 hour
Temperature (ºF) Pressure Precipitation (in)